createdAt,value
2022-08-20T00:02:27.482Z,16.80
2022-08-20T00:07:29.264Z,16.50
2022-08-20T00:12:30.923Z,16.90
2022-08-20T00:17:37.095Z,16.73
2022-08-20T00:22:38.839Z,16.90
2022-08-20T00:27:40.509Z,17.33
2022-08-20T00:32:44.080Z,18.27
2022-08-20T00:37:45.814Z,17.10
2022-08-20T00:42:49.827Z,18.60
2022-08-20T00:47:51.771Z,20.07
2022-08-20T00:52:53.723Z,17.80
2022-08-20T00:58:01.112Z,21.53
2022-08-20T01:03:03.771Z,14.83
2022-08-20T01:08:05.456Z,15.00
2022-08-20T01:13:12.492Z,14.33
2022-08-20T01:18:16.449Z,15.10
2022-08-20T01:23:30.334Z,15.30
2022-08-20T01:28:35.415Z,18.23
2022-08-20T01:33:37.083Z,19.97
2022-08-20T01:38:38.856Z,16.67
2022-08-20T01:43:41.843Z,17.27
2022-08-20T01:48:43.584Z,18.53
2022-08-20T01:53:47.515Z,17.13
2022-08-20T01:58:55.970Z,21.33
2022-08-20T02:04:01.954Z,17.67
2022-08-20T02:09:04.103Z,18.93
2022-08-20T02:14:07.239Z,19.00
2022-08-20T02:19:15.166Z,18.90
2022-08-20T02:24:16.814Z,19.20
2022-08-20T02:29:18.519Z,19.53
2022-08-20T02:34:22.925Z,19.73
2022-08-20T02:39:26.667Z,19.50
2022-08-20T02:44:28.327Z,22.67
2022-08-20T02:49:30.169Z,20.17
2022-08-20T02:54:31.863Z,18.70
2022-08-20T02:59:33.567Z,19.23
2022-08-20T03:04:35.302Z,17.27
2022-08-20T03:09:37.055Z,18.63
2022-08-20T03:14:38.705Z,18.80
2022-08-20T03:19:40.365Z,19.90
2022-08-20T03:24:42.102Z,19.80
2022-08-20T03:29:43.776Z,18.70
2022-08-20T03:34:45.470Z,23.77
2022-08-20T03:39:47.289Z,20.37
2022-08-20T03:44:49.223Z,22.13
2022-08-20T03:50:01.126Z,20.80
2022-08-20T03:55:03.478Z,20.40
2022-08-20T04:00:06.423Z,20.60
2022-08-20T04:05:13.503Z,18.63
2022-08-20T04:10:15.146Z,21.30
2022-08-20T04:15:17.187Z,21.20
2022-08-20T04:20:23.704Z,22.63
2022-08-20T04:25:25.360Z,20.77
2022-08-20T04:30:28.843Z,21.17
2022-08-20T04:35:30.803Z,23.53
2022-08-20T04:40:51.415Z,23.83
2022-08-20T04:45:53.633Z,21.30
2022-08-20T04:50:55.697Z,25.37
2022-08-20T04:56:00.748Z,25.90
2022-08-20T05:01:07.136Z,24.43
2022-08-20T05:06:09.800Z,27.73
2022-08-20T05:11:35.902Z,28.63
2022-08-20T05:16:37.935Z,28.20
2022-08-20T05:21:39.731Z,28.90
2022-08-20T05:26:41.445Z,26.50
2022-08-20T05:31:43.280Z,29.17
2022-08-20T05:36:48.160Z,26.37
2022-08-20T05:41:51.188Z,26.10
2022-08-20T05:46:52.854Z,23.27
2022-08-20T05:51:54.588Z,22.97
2022-08-20T05:56:56.398Z,20.73
2022-08-20T06:01:58.087Z,20.53
2022-08-20T06:07:04.830Z,28.73
2022-08-20T06:12:08.838Z,20.57
2022-08-20T06:17:15.620Z,23.17
2022-08-20T06:22:19.580Z,16.37
2022-08-20T06:27:26.309Z,19.80
2022-08-20T06:32:32.007Z,19.17
2022-08-20T06:37:36.477Z,23.87
2022-08-20T06:42:47.854Z,24.00
2022-08-20T06:47:50.192Z,22.80
2022-08-20T06:52:53.207Z,21.70
2022-08-20T06:58:02.631Z,24.57
2022-08-20T07:03:04.865Z,21.53
2022-08-20T07:08:06.543Z,24.70
2022-08-20T07:13:09.264Z,22.70
2022-08-20T07:18:11.116Z,19.47
2022-08-20T07:23:12.784Z,19.67
2022-08-20T07:28:16.501Z,15.23
2022-08-20T07:33:18.383Z,15.50
2022-08-20T07:38:24.786Z,15.13
2022-08-20T07:43:26.478Z,18.07
2022-08-20T07:48:32.478Z,14.60
2022-08-20T07:53:36.169Z,16.07
2022-08-20T07:58:39.311Z,14.70
2022-08-20T08:03:49.717Z,15.43
2022-08-20T08:08:52.209Z,17.93
2022-08-20T08:13:54.526Z,18.40
2022-08-20T08:19:01.253Z,19.07
2022-08-20T08:24:03.873Z,17.80
2022-08-20T08:29:07.536Z,16.30
2022-08-20T08:34:10.354Z,15.87
2022-08-20T08:39:12.012Z,16.50
2022-08-20T08:44:23.069Z,14.13
2022-08-20T08:49:37.603Z,15.63
2022-08-20T08:54:42.463Z,14.93
2022-08-20T08:59:47.375Z,11.60
2022-08-20T09:05:14.917Z,8.43
2022-08-20T09:10:17.527Z,7.30
2022-08-20T09:15:24.907Z,10.70
2022-08-20T09:20:27.169Z,10.97
2022-08-20T09:25:28.982Z,15.87
2022-08-20T09:30:30.693Z,12.60
2022-08-20T09:35:32.495Z,8.70
2022-08-20T09:40:34.674Z,13.20
2022-08-20T09:45:36.459Z,9.60
2022-08-20T09:50:38.933Z,11.27
2022-08-20T09:55:41.813Z,13.47
2022-08-20T10:00:43.477Z,13.37
2022-08-20T10:05:45.200Z,10.77
2022-08-20T10:10:46.877Z,9.07
2022-08-20T10:15:48.551Z,11.17
2022-08-20T10:20:50.241Z,15.03
2022-08-20T10:25:51.932Z,11.53
2022-08-20T10:30:53.580Z,10.90
2022-08-20T10:35:59.648Z,17.80
2022-08-20T10:41:01.824Z,9.40
2022-08-20T10:46:03.587Z,11.07
2022-08-20T10:51:05.352Z,9.50
2022-08-20T10:56:07.256Z,9.83
2022-08-20T11:01:08.997Z,13.37
2022-08-20T11:06:10.674Z,10.80
2022-08-20T11:11:14.502Z,8.83
2022-08-20T11:16:16.163Z,8.37
2022-08-20T11:21:17.864Z,10.10
2022-08-20T11:26:22.229Z,14.37
2022-08-20T11:31:23.931Z,10.70
2022-08-20T11:36:26.443Z,15.17
2022-08-20T11:41:28.116Z,10.77
2022-08-20T11:46:29.825Z,14.30
2022-08-20T11:51:31.470Z,13.03
2022-08-20T11:56:51.489Z,19.13
2022-08-20T12:02:02.851Z,19.87
2022-08-20T12:07:10.245Z,12.30
2022-08-20T12:12:12.117Z,8.57
2022-08-20T12:17:23.962Z,8.43
2022-08-20T12:22:25.769Z,9.27
2022-08-20T12:27:28.950Z,6.37
2022-08-20T12:32:31.234Z,16.83
2022-08-20T12:37:32.911Z,7.23
2022-08-20T12:42:34.648Z,11.23
2022-08-20T12:47:38.188Z,12.43
2022-08-20T12:52:39.869Z,1.40
2022-08-20T12:57:52.636Z,1.17
2022-08-20T13:02:55.098Z,1.10
2022-08-20T13:07:56.898Z,2.67
2022-08-20T13:12:59.068Z,3.10
2022-08-20T13:18:01.739Z,7.70
2022-08-20T13:23:04.407Z,2.27
2022-08-20T13:28:06.103Z,2.63
2022-08-20T13:33:07.774Z,4.10
2022-08-20T13:38:09.444Z,3.50
2022-08-20T13:43:11.965Z,3.17
2022-08-20T13:48:14.903Z,3.03
2022-08-20T13:53:17.547Z,3.63
2022-08-20T13:58:21.641Z,2.33
2022-08-20T14:03:25.273Z,1.80
2022-08-20T14:08:27.439Z,2.40
2022-08-20T14:13:29.183Z,1.97
2022-08-20T14:18:30.857Z,2.30
2022-08-20T14:23:32.526Z,2.83
2022-08-20T14:28:38.653Z,2.90
2022-08-20T14:33:44.423Z,7.40
2022-08-20T14:38:46.415Z,5.63
2022-08-20T14:43:48.191Z,6.30
2022-08-20T14:48:53.300Z,3.13
2022-08-20T14:53:55.233Z,3.50
2022-08-20T14:58:56.896Z,3.93
2022-08-20T15:03:58.561Z,4.83
2022-08-20T15:09:00.225Z,3.10
2022-08-20T15:14:01.920Z,8.70
2022-08-20T15:19:03.799Z,4.03
2022-08-20T15:24:05.577Z,5.43
2022-08-20T15:29:23.050Z,5.23
2022-08-20T15:34:25.240Z,5.80
2022-08-20T15:39:27.879Z,5.60
2022-08-20T15:44:29.534Z,10.57
2022-08-20T15:49:31.188Z,6.53
2022-08-20T15:54:32.852Z,6.80
2022-08-20T16:00:22.882Z,4.40
2022-08-20T16:05:38.767Z,6.03
2022-08-20T16:10:46.421Z,4.70
2022-08-20T16:15:49.660Z,3.93
2022-08-20T16:20:52.711Z,3.03
2022-08-20T16:26:28.351Z,3.53
2022-08-20T16:31:32.764Z,3.93
2022-08-20T16:36:46.189Z,6.40
2022-08-20T16:42:00.472Z,9.10
2022-08-20T16:47:28.284Z,11.83
2022-08-20T16:52:29.959Z,4.90
2022-08-20T16:57:31.642Z,4.93
2022-08-20T17:02:33.305Z,4.47
2022-08-20T17:07:46.983Z,4.10
2022-08-20T17:12:54.334Z,6.83
2022-08-20T17:17:56.223Z,5.73
2022-08-20T17:23:18.245Z,5.40
2022-08-20T17:28:20.440Z,3.60
2022-08-20T17:33:30.049Z,6.53
2022-08-20T17:38:45.663Z,6.57
2022-08-20T17:43:47.335Z,3.50
2022-08-20T17:48:49.154Z,2.90
2022-08-20T17:53:53.300Z,4.80
2022-08-20T17:59:03.107Z,5.87
2022-08-20T18:04:05.420Z,6.00
2022-08-20T18:09:13.189Z,4.83
2022-08-20T18:14:19.375Z,3.50
2022-08-20T18:19:42.120Z,3.70
2022-08-20T18:24:55.483Z,5.90
2022-08-20T18:29:58.845Z,5.10
2022-08-20T18:35:11.343Z,10.73
2022-08-20T18:40:17.555Z,11.60
2022-08-20T18:45:33.644Z,7.30
2022-08-20T18:50:40.967Z,8.67
2022-08-20T18:55:44.968Z,12.80
2022-08-20T19:00:48.971Z,8.27
2022-08-20T19:06:26.732Z,6.27
2022-08-20T19:11:56.936Z,5.77
2022-08-20T19:17:10.043Z,5.40
2022-08-20T19:22:12.986Z,7.70
2022-08-20T19:27:14.629Z,10.70
2022-08-20T19:32:23.584Z,12.47
2022-08-20T19:37:39.645Z,9.37
2022-08-20T19:42:49.660Z,11.60
2022-08-20T19:48:07.999Z,8.23
2022-08-20T19:53:26.452Z,11.37
2022-08-20T19:58:32.409Z,7.63
2022-08-20T20:03:35.179Z,20.07
2022-08-20T20:08:43.331Z,11.53
2022-08-20T20:13:45.086Z,8.13
2022-08-20T20:18:58.847Z,6.77
2022-08-20T20:24:08.546Z,6.93
2022-08-20T20:29:18.916Z,6.93
2022-08-20T20:34:29.143Z,10.03
2022-08-20T20:39:36.156Z,8.30
2022-08-20T20:44:41.976Z,6.73
2022-08-20T20:49:52.217Z,13.17
2022-08-20T20:55:05.033Z,7.83
2022-08-20T21:00:13.666Z,4.53
2022-08-20T21:05:16.488Z,9.33
2022-08-20T21:10:19.372Z,5.53
2022-08-20T21:15:22.010Z,8.27
2022-08-20T21:20:23.853Z,8.13
2022-08-20T21:25:26.691Z,6.10
2022-08-20T21:30:28.506Z,6.37
2022-08-20T21:35:30.251Z,7.33
2022-08-20T21:40:31.955Z,7.90
2022-08-20T21:45:33.818Z,6.83
2022-08-20T21:50:35.572Z,8.50
2022-08-20T21:55:39.583Z,7.53
2022-08-20T22:00:57.856Z,7.37
2022-08-20T22:06:00.392Z,8.50
2022-08-20T22:11:02.036Z,9.30
2022-08-20T22:16:06.211Z,10.27
2022-08-20T22:21:10.464Z,12.33
2022-08-20T22:26:12.308Z,15.20
2022-08-20T22:31:14.241Z,5.43
2022-08-20T22:36:15.971Z,7.97
2022-08-20T22:41:18.086Z,9.40
2022-08-20T22:46:19.768Z,6.13
2022-08-20T22:51:32.556Z,9.17
2022-08-20T22:56:37.031Z,7.83
2022-08-20T23:01:39.230Z,5.03
2022-08-20T23:06:41.048Z,7.90
2022-08-20T23:11:42.696Z,4.60
2022-08-20T23:16:45.260Z,10.43
2022-08-20T23:21:48.088Z,6.50
2022-08-20T23:26:53.124Z,9.70
2022-08-20T23:31:55.655Z,8.60
2022-08-20T23:36:57.519Z,7.40
2022-08-20T23:41:59.285Z,9.00
2022-08-20T23:47:02.059Z,20.70
2022-08-20T23:52:03.798Z,8.10
2022-08-20T23:57:08.102Z,7.67
